Time;durP1;ratioP1;P1;durP2;ratioP2;P2;SDS_P1;SDS_P2;PMS_P1;PMS_P2;Temp;Humidity;BMP_temperature;BMP_pressure;BME280_temperature;BME280_humidity;BME280_pressure;Samples;Min_cycle;Max_cycle;Signal;HPM_P1;HPM_P2
2023/01/30 00:01:07;;;;;;;;;;;19.10;44.00;;;;;;5051250;28;19920;-61
2023/01/30 00:03:34;;;;;;;;;;;19.00;43.90;;;;;;5033175;28;19978;-60
2023/01/30 00:06:00;;;;;;;;;;;19.00;43.90;;;;;;5033413;28;19947;-59
2023/01/30 00:08:27;;;;;;;;;;;19.10;43.90;;;;;;5030037;28;20280;-59
2023/01/30 00:10:54;;;;;;;;;;;19.00;43.90;;;;;;5048958;28;19932;-65
2023/01/30 00:13:21;;;;;;;;;;;19.00;43.80;;;;;;5033269;28;19943;-59
2023/01/30 00:15:47;;;;;;;;;;;19.00;43.80;;;;;;5022171;28;19925;-60
2023/01/30 00:18:16;;;;;;;;;;;19.00;43.80;;;;;;5033197;28;19960;-60
2023/01/30 00:20:43;;;;;;;;;;;19.00;43.80;;;;;;5028279;28;19925;-59
2023/01/30 00:23:09;;;;;;;;;;;19.00;43.80;;;;;;5033246;28;19924;-59
2023/01/30 00:25:36;;;;;;;;;;;19.00;43.80;;;;;;5051140;28;19920;-64
2023/01/30 00:28:03;;;;;;;;;;;19.00;43.80;;;;;;5032672;28;19924;-60
2023/01/30 00:30:29;;;;;;;;;;;19.00;43.80;;;;;;5022614;28;20422;-61
2023/01/30 00:32:56;;;;;;;;;;;19.00;43.80;;;;;;5031702;28;19944;-67
2023/01/30 00:35:27;;;;;;;;;;;19.00;43.80;;;;;;5013563;28;19925;-59
2023/01/30 00:37:55;;;;;;;;;;;19.00;43.80;;;;;;5033282;28;19925;-61
2023/01/30 00:40:22;;;;;;;;;;;19.00;43.80;;;;;;5033086;28;19987;-58
2023/01/30 00:48:17;;;;;;;;;;;19.00;43.80;;;;;;5032331;28;19920;-67
2023/01/30 00:50:45;;;;;;;;;;;19.00;43.80;;;;;;5031654;28;19920;-58
2023/01/30 00:53:12;;;;;;;;;;;19.00;43.80;;;;;;5032415;28;19939;-64
2023/01/30 00:55:39;;;;;;;;;;;19.00;43.80;;;;;;5032653;28;19990;-60
2023/01/30 00:58:06;;;;;;;;;;;19.00;43.80;;;;;;5033145;28;20006;-59
2023/01/30 01:00:32;;;;;;;;;;;19.00;43.80;;;;;;5032705;28;19983;-59
2023/01/30 01:02:59;;;;;;;;;;;19.00;43.80;;;;;;5045733;28;19928;-61
2023/01/30 01:05:26;;;;;;;;;;;19.00;43.80;;;;;;5027803;28;19920;-60
2023/01/30 01:07:54;;;;;;;;;;;19.00;43.80;;;;;;5032611;28;20003;-63
2023/01/30 01:10:21;;;;;;;;;;;19.00;43.80;;;;;;5032194;28;19972;-59
2023/01/30 01:12:48;;;;;;;;;;;19.00;43.80;;;;;;5050582;28;19927;-60
2023/01/30 01:15:18;;;;;;;;;;;19.00;44.40;;;;;;5026717;28;19967;-59
2023/01/30 01:17:45;;;;;;;;;;;19.00;43.80;;;;;;5028974;28;19929;-65
2023/01/30 01:20:12;;;;;;;;;;;19.00;43.80;;;;;;5019226;28;19924;-65
2023/01/30 01:22:38;;;;;;;;;;;19.00;43.80;;;;;;5027200;28;20525;-60
2023/01/30 01:25:08;;;;;;;;;;;19.00;43.80;;;;;;5012731;28;19928;-65
2023/01/30 01:27:34;;;;;;;;;;;19.00;43.80;;;;;;5030762;28;19921;-70
2023/01/30 01:30:01;;;;;;;;;;;19.00;43.80;;;;;;5050223;28;19921;-60
2023/01/30 01:32:28;;;;;;;;;;;19.00;43.80;;;;;;5032514;28;19966;-58
2023/01/30 01:34:55;;;;;;;;;;;19.00;43.80;;;;;;5031248;28;20286;-61
2023/01/30 01:37:22;;;;;;;;;;;19.00;43.80;;;;;;5032246;28;19921;-60
2023/01/30 01:42:35;;;;;;;;;;;19.00;43.80;;;;;;5013052;28;19921;-68
2023/01/30 01:45:03;;;;;;;;;;;19.00;43.80;;;;;;5045607;28;20433;-61
2023/01/30 01:47:30;;;;;;;;;;;19.00;43.70;;;;;;5049048;28;20083;-59
2023/01/30 01:49:56;;;;;;;;;;;19.00;43.80;;;;;;5024261;28;19921;-69
2023/01/30 01:52:23;;;;;;;;;;;19.00;43.80;;;;;;5025774;28;20069;-60
2023/01/30 01:54:50;;;;;;;;;;;18.90;43.70;;;;;;5027263;28;19936;-65
2023/01/30 01:57:23;;;;;;;;;;;19.00;43.70;;;;;;5024771;28;19959;-61
2023/01/30 01:59:51;;;;;;;;;;;19.00;43.70;;;;;;5033463;28;19975;-61
2023/01/30 02:02:18;;;;;;;;;;;19.00;43.70;;;;;;5027505;28;20180;-59
2023/01/30 02:05:05;;;;;;;;;;;19.00;43.70;;;;;;5014073;28;19947;-60
2023/01/30 02:07:33;;;;;;;;;;;19.00;43.70;;;;;;5029654;28;19931;-60
2023/01/30 02:10:00;;;;;;;;;;;19.00;43.80;;;;;;5028844;28;19927;-59
2023/01/30 02:12:27;;;;;;;;;;;18.90;43.60;;;;;;5034706;28;19928;-66
2023/01/30 02:14:55;;;;;;;;;;;19.00;43.70;;;;;;5048018;28;19960;-67
2023/01/30 02:17:22;;;;;;;;;;;18.90;43.60;;;;;;5028172;28;19925;-61
2023/01/30 02:19:50;;;;;;;;;;;18.90;43.60;;;;;;5046894;28;19935;-63
2023/01/30 02:22:18;;;;;;;;;;;19.00;43.70;;;;;;5019547;28;19931;-63
2023/01/30 02:24:54;;;;;;;;;;;19.00;43.70;;;;;;5044617;28;19975;-62
2023/01/30 02:27:28;;;;;;;;;;;19.00;43.70;;;;;;5021890;28;19921;-59
2023/01/30 02:30:00;;;;;;;;;;;19.00;43.70;;;;;;5049499;28;19924;-61
2023/01/30 02:32:29;;;;;;;;;;;19.00;43.70;;;;;;5031272;28;20297;-61
2023/01/30 02:34:57;;;;;;;;;;;18.90;43.60;;;;;;5064884;28;19975;-61
2023/01/30 02:37:28;;;;;;;;;;;19.00;43.70;;;;;;5029069;28;19968;-62
2023/01/30 02:40:00;;;;;;;;;;;18.90;43.60;;;;;;5031327;28;19925;-60
2023/01/30 02:42:29;;;;;;;;;;;19.00;43.70;;;;;;5062701;28;20359;-60
2023/01/30 02:44:59;;;;;;;;;;;19.00;43.70;;;;;;5011485;28;19956;-60
2023/01/30 02:47:28;;;;;;;;;;;19.00;43.70;;;;;;5011590;28;19921;-70
2023/01/30 02:49:57;;;;;;;;;;;19.00;43.70;;;;;;5023806;28;20309;-62
2023/01/30 02:52:23;;;;;;;;;;;19.00;43.70;;;;;;5030065;28;19921;-61
2023/01/30 02:54:50;;;;;;;;;;;18.90;43.60;;;;;;5011020;28;19928;-61
2023/01/30 02:57:18;;;;;;;;;;;19.00;43.70;;;;;;5014776;28;19921;-62
2023/01/30 02:59:45;;;;;;;;;;;19.00;43.70;;;;;;5010745;28;19921;-69
2023/01/30 03:02:33;;;;;;;;;;;19.00;43.70;;;;;;5031145;28;19920;-68
2023/01/30 03:05:06;;;;;;;;;;;19.00;43.70;;;;;;5044483;28;19933;-59
2023/01/30 03:07:35;;;;;;;;;;;18.90;43.70;;;;;;5034372;28;20332;-60
2023/01/30 03:10:04;;;;;;;;;;;19.00;43.70;;;;;;5035400;28;19928;-59
2023/01/30 03:12:37;;;;;;;;;;;19.00;43.70;;;;;;5026508;28;19975;-59
2023/01/30 03:15:05;;;;;;;;;;;18.90;43.60;;;;;;5034565;28;19928;-65
2023/01/30 03:17:32;;;;;;;;;;;19.00;43.70;;;;;;5016389;28;19925;-60
2023/01/30 03:19:59;;;;;;;;;;;18.90;43.60;;;;;;5016593;28;19979;-63
2023/01/30 03:22:27;;;;;;;;;;;18.90;43.60;;;;;;5033908;28;19975;-61
2023/01/30 03:24:54;;;;;;;;;;;18.90;43.60;;;;;;5052805;28;19928;-59
2023/01/30 03:27:20;;;;;;;;;;;18.90;43.60;;;;;;5050105;28;19921;-60
2023/01/30 03:29:47;;;;;;;;;;;19.00;43.70;;;;;;5015095;28;19925;-62
2023/01/30 03:32:14;;;;;;;;;;;18.90;43.60;;;;;;5029742;28;19924;-59
2023/01/30 03:34:41;;;;;;;;;;;19.00;43.70;;;;;;5034230;28;19925;-67
2023/01/30 03:37:07;;;;;;;;;;;18.90;43.60;;;;;;5034073;28;19921;-60
2023/01/30 03:39:36;;;;;;;;;;;18.90;43.60;;;;;;5034304;28;19925;-59
2023/01/30 03:42:02;;;;;;;;;;;19.00;43.70;;;;;;5033893;28;19982;-59
2023/01/30 03:44:29;;;;;;;;;;;18.90;43.60;;;;;;5029253;28;20002;-58
2023/01/30 03:46:56;;;;;;;;;;;19.00;43.70;;;;;;5022310;28;19929;-59
2023/01/30 03:49:23;;;;;;;;;;;18.90;43.60;;;;;;5014138;28;19999;-62
2023/01/30 03:51:50;;;;;;;;;;;18.90;43.60;;;;;;5022271;28;19928;-66
2023/01/30 03:54:17;;;;;;;;;;;18.90;43.60;;;;;;5017962;28;19928;-59
2023/01/30 03:56:45;;;;;;;;;;;18.90;43.60;;;;;;5041696;28;19937;-59
2023/01/30 03:59:12;;;;;;;;;;;18.90;43.50;;;;;;5031491;28;19928;-65
2023/01/30 04:01:39;;;;;;;;;;;18.90;43.60;;;;;;5040663;28;20378;-65
2023/01/30 04:04:05;;;;;;;;;;;18.90;43.50;;;;;;5051799;28;19971;-62
2023/01/30 04:06:32;;;;;;;;;;;18.90;43.60;;;;;;5051008;28;20335;-61
2023/01/30 04:08:59;;;;;;;;;;;18.90;43.60;;;;;;5034224;28;19967;-60
2023/01/30 04:11:25;;;;;;;;;;;18.90;43.50;;;;;;5033593;28;19954;-68
2023/01/30 04:13:54;;;;;;;;;;;18.90;43.60;;;;;;5032926;28;19935;-60
2023/01/30 04:16:21;;;;;;;;;;;18.90;43.50;;;;;;5031510;28;20433;-59
2023/01/30 04:18:48;;;;;;;;;;;18.90;43.50;;;;;;5064035;28;19928;-60
2023/01/30 04:21:15;;;;;;;;;;;18.90;43.60;;;;;;5041626;28;19974;-68
2023/01/30 04:23:41;;;;;;;;;;;18.90;43.50;;;;;;5021776;28;19952;-61
2023/01/30 04:26:08;;;;;;;;;;;18.90;43.50;;;;;;5013418;28;19925;-60
2023/01/30 04:28:35;;;;;;;;;;;18.90;43.50;;;;;;5013706;28;19921;-63
2023/01/30 04:31:03;;;;;;;;;;;18.90;43.60;;;;;;5013793;28;19928;-60
2023/01/30 04:33:31;;;;;;;;;;;18.90;43.50;;;;;;5012783;28;19925;-66
2023/01/30 04:35:58;;;;;;;;;;;18.90;43.60;;;;;;5013805;28;20388;-62
2023/01/30 04:38:25;;;;;;;;;;;18.90;43.60;;;;;;5013278;28;19925;-59
2023/01/30 04:40:52;;;;;;;;;;;18.90;43.60;;;;;;5013733;28;20375;-67
2023/01/30 04:43:19;;;;;;;;;;;18.90;43.50;;;;;;5036641;28;19929;-58
2023/01/30 04:45:45;;;;;;;;;;;18.90;43.60;;;;;;5033469;28;19938;-62
2023/01/30 04:48:14;;;;;;;;;;;18.90;43.60;;;;;;5050506;28;19920;-60
2023/01/30 04:50:41;;;;;;;;;;;18.90;43.50;;;;;;5050330;28;20003;-68
2023/01/30 04:53:08;;;;;;;;;;;18.90;43.50;;;;;;5033128;28;19921;-59
2023/01/30 04:55:34;;;;;;;;;;;18.90;43.60;;;;;;5013349;28;19926;-60
2023/01/30 04:58:01;;;;;;;;;;;18.90;43.60;;;;;;5013498;28;19932;-62
2023/01/30 05:00:28;;;;;;;;;;;18.90;43.60;;;;;;5013374;28;19932;-70
2023/01/30 05:02:54;;;;;;;;;;;18.90;43.50;;;;;;5026441;28;20333;-61
2023/01/30 05:05:23;;;;;;;;;;;18.90;43.50;;;;;;5049045;28;19960;-63
2023/01/30 05:07:49;;;;;;;;;;;18.90;43.50;;;;;;5035831;28;19925;-63
2023/01/30 05:10:16;;;;;;;;;;;18.90;43.50;;;;;;5013262;28;19929;-59
2023/01/30 05:12:44;;;;;;;;;;;18.90;43.50;;;;;;5012580;28;20147;-59
2023/01/30 05:15:11;;;;;;;;;;;18.90;43.50;;;;;;5012553;28;19921;-67
2023/01/30 05:17:37;;;;;;;;;;;18.90;43.50;;;;;;5012848;28;19925;-60
2023/01/30 05:20:05;;;;;;;;;;;18.90;43.50;;;;;;5032695;28;19992;-62
2023/01/30 05:22:33;;;;;;;;;;;18.90;43.50;;;;;;5032283;28;19925;-59
2023/01/30 05:25:00;;;;;;;;;;;18.90;43.50;;;;;;5031978;28;19921;-60
2023/01/30 05:27:27;;;;;;;;;;;18.90;43.50;;;;;;5032180;28;19924;-67
2023/01/30 05:29:53;;;;;;;;;;;18.90;43.50;;;;;;5023654;28;19926;-60
2023/01/30 05:32:24;;;;;;;;;;;18.90;43.50;;;;;;5029818;28;19948;-63
2023/01/30 05:34:51;;;;;;;;;;;18.90;43.50;;;;;;5012522;28;19967;-60
2023/01/30 05:37:17;;;;;;;;;;;18.90;43.50;;;;;;5020977;28;19935;-65
2023/01/30 05:39:46;;;;;;;;;;;18.90;43.50;;;;;;5032319;28;19990;-64
2023/01/30 05:42:12;;;;;;;;;;;18.90;43.50;;;;;;5032041;28;19920;-62
2023/01/30 05:44:39;;;;;;;;;;;18.90;43.50;;;;;;5032056;28;19921;-60
2023/01/30 05:47:06;;;;;;;;;;;18.90;43.50;;;;;;5043095;28;20785;-68
2023/01/30 05:49:33;;;;;;;;;;;18.90;43.50;;;;;;5012349;28;19921;-61
2023/01/30 05:51:59;;;;;;;;;;;18.90;43.50;;;;;;5033375;28;19921;-59
2023/01/30 05:54:26;;;;;;;;;;;18.90;43.50;;;;;;5012805;28;19929;-63
2023/01/30 05:56:54;;;;;;;;;;;18.90;43.50;;;;;;5017592;28;19921;-61
2023/01/30 05:59:21;;;;;;;;;;;18.90;43.50;;;;;;5012240;28;19944;-64
2023/01/30 06:01:48;;;;;;;;;;;18.90;43.50;;;;;;5037989;28;19959;-63
2023/01/30 06:04:15;;;;;;;;;;;18.90;43.50;;;;;;5029967;28;19921;-60
2023/01/30 06:06:41;;;;;;;;;;;18.90;43.50;;;;;;5012564;28;19971;-60
2023/01/30 06:09:09;;;;;;;;;;;18.90;43.50;;;;;;5012407;28;19982;-63
2023/01/30 06:11:36;;;;;;;;;;;18.90;43.50;;;;;;5012070;28;20287;-64
2023/01/30 06:14:04;;;;;;;;;;;18.90;43.50;;;;;;5012095;28;19932;-66
2023/01/30 06:16:31;;;;;;;;;;;18.90;43.50;;;;;;5012210;28;19928;-65
2023/01/30 06:18:58;;;;;;;;;;;18.90;43.50;;;;;;5011873;28;19921;-60
2023/01/30 06:21:25;;;;;;;;;;;18.90;43.50;;;;;;5024767;28;19924;-62
2023/01/30 06:23:52;;;;;;;;;;;18.90;43.50;;;;;;5027896;28;20383;-61
2023/01/30 06:26:18;;;;;;;;;;;18.90;43.50;;;;;;5011998;28;19925;-63
2023/01/30 06:28:45;;;;;;;;;;;18.90;43.50;;;;;;5047383;28;19920;-59
2023/01/30 06:31:13;;;;;;;;;;;18.90;43.50;;;;;;5031357;28;19920;-59
2023/01/30 06:33:40;;;;;;;;;;;18.90;43.50;;;;;;5030834;28;19968;-59
2023/01/30 06:36:07;;;;;;;;;;;18.90;43.50;;;;;;5029996;28;20401;-68
2023/01/30 06:38:34;;;;;;;;;;;18.90;43.50;;;;;;5023445;28;20370;-64
2023/01/30 06:41:01;;;;;;;;;;;18.90;43.50;;;;;;5033727;28;20429;-59
2023/01/30 06:43:27;;;;;;;;;;;18.90;43.50;;;;;;5019907;28;20567;-62
2023/01/30 06:45:54;;;;;;;;;;;18.90;43.50;;;;;;5033839;28;20257;-60
2023/01/30 06:48:22;;;;;;;;;;;18.90;43.50;;;;;;5028528;28;19921;-60
2023/01/30 06:50:49;;;;;;;;;;;18.90;43.50;;;;;;5035504;28;19925;-60
2023/01/30 06:53:16;;;;;;;;;;;18.90;43.50;;;;;;5027479;28;19952;-67
2023/01/30 06:55:43;;;;;;;;;;;18.90;43.50;;;;;;5040486;28;19925;-59
2023/01/30 06:58:11;;;;;;;;;;;18.90;43.50;;;;;;5031968;28;19922;-60
2023/01/30 07:00:38;;;;;;;;;;;18.90;43.50;;;;;;5015318;28;19929;-59
2023/01/30 07:03:05;;;;;;;;;;;18.90;43.40;;;;;;5015114;28;19992;-60
2023/01/30 07:05:33;;;;;;;;;;;18.90;43.40;;;;;;5015321;28;19921;-59
2023/01/30 07:08:00;;;;;;;;;;;18.90;43.50;;;;;;5015228;28;19928;-62
2023/01/30 07:10:30;;;;;;;;;;;18.90;43.50;;;;;;5022548;28;19924;-63
2023/01/30 07:12:57;;;;;;;;;;;18.90;43.50;;;;;;5045099;28;19986;-60
2023/01/30 07:15:24;;;;;;;;;;;18.90;44.00;;;;;;5053120;28;19925;-61
2023/01/30 07:17:51;;;;;;;;;;;18.90;43.50;;;;;;5026656;28;19930;-61
2023/01/30 07:20:18;;;;;;;;;;;18.90;43.40;;;;;;5014882;28;19925;-60
2023/01/30 07:22:50;;;;;;;;;;;18.90;43.40;;;;;;5033118;28;19921;-65
2023/01/30 07:25:17;;;;;;;;;;;18.90;43.50;;;;;;5031495;28;20381;-68
2023/01/30 07:27:44;;;;;;;;;;;18.90;43.40;;;;;;5027997;28;20244;-60
2023/01/30 07:30:11;;;;;;;;;;;18.90;43.40;;;;;;5020117;28;20233;-61
2023/01/30 07:32:38;;;;;;;;;;;18.90;43.40;;;;;;5019017;28;19971;-59
2023/01/30 07:35:05;;;;;;;;;;;18.90;43.40;;;;;;5043208;28;19920;-60
2023/01/30 07:37:32;;;;;;;;;;;18.90;43.40;;;;;;5035955;28;19921;-59
2023/01/30 07:40:00;;;;;;;;;;;18.90;43.40;;;;;;5037955;28;19921;-60
2023/01/30 07:42:27;;;;;;;;;;;18.90;43.40;;;;;;5058286;28;20381;-62
2023/01/30 07:44:54;;;;;;;;;;;18.90;43.40;;;;;;5047293;28;19920;-61
2023/01/30 07:47:21;;;;;;;;;;;18.90;43.40;;;;;;5043504;28;19920;-64
2023/01/30 07:49:47;;;;;;;;;;;18.90;43.40;;;;;;5034884;28;19932;-67
2023/01/30 07:52:14;;;;;;;;;;;18.90;43.40;;;;;;5045823;28;19928;-59
2023/01/30 07:54:41;;;;;;;;;;;18.90;43.40;;;;;;5031577;28;20303;-58
2023/01/30 07:57:09;;;;;;;;;;;18.90;43.40;;;;;;5048708;28;19924;-65
2023/01/30 07:59:36;;;;;;;;;;;18.90;43.40;;;;;;5036744;28;19921;-63
2023/01/30 08:02:03;;;;;;;;;;;18.80;43.30;;;;;;5027611;28;19983;-61
2023/01/30 08:04:29;;;;;;;;;;;18.90;43.40;;;;;;5021987;28;19933;-59
2023/01/30 08:06:56;;;;;;;;;;;18.90;43.30;;;;;;5021954;28;19921;-62
2023/01/30 08:09:23;;;;;;;;;;;18.90;43.30;;;;;;5031729;28;19921;-64
2023/01/30 08:11:49;;;;;;;;;;;18.90;43.40;;;;;;5013045;28;20026;-60
2023/01/30 08:14:18;;;;;;;;;;;18.90;43.40;;;;;;5030718;28;19929;-66
2023/01/30 08:16:44;;;;;;;;;;;18.90;43.30;;;;;;5031308;28;19921;-62
2023/01/30 08:19:11;;;;;;;;;;;18.90;43.40;;;;;;5013206;28;19924;-60
2023/01/30 08:21:38;;;;;;;;;;;18.90;43.40;;;;;;5015972;28;19925;-63
2023/01/30 08:24:05;;;;;;;;;;;18.90;43.30;;;;;;5013950;28;19921;-63
2023/01/30 08:26:32;;;;;;;;;;;18.90;43.40;;;;;;5013312;28;19925;-58
2023/01/30 08:28:58;;;;;;;;;;;18.90;43.40;;;;;;5014900;28;19925;-66
2023/01/30 08:31:26;;;;;;;;;;;18.90;43.40;;;;;;5030626;28;19925;-62
2023/01/30 08:33:53;;;;;;;;;;;18.90;43.40;;;;;;5026790;28;19931;-62
2023/01/30 08:36:20;;;;;;;;;;;18.90;43.40;;;;;;5065923;28;19921;-59
2023/01/30 08:38:47;;;;;;;;;;;18.90;43.40;;;;;;5030761;28;19978;-75
2023/01/30 08:41:14;;;;;;;;;;;18.90;43.40;;;;;;5021983;28;19921;-62
2023/01/30 08:43:40;;;;;;;;;;;18.90;43.40;;;;;;5030247;28;19925;-61
2023/01/30 08:46:07;;;;;;;;;;;18.90;43.30;;;;;;5013015;28;19990;-62
2023/01/30 08:48:38;;;;;;;;;;;18.90;43.40;;;;;;5030718;28;19921;-59
2023/01/30 08:51:05;;;;;;;;;;;18.90;43.40;;;;;;5014136;28;19983;-60
2023/01/30 08:53:31;;;;;;;;;;;18.90;43.40;;;;;;5038871;28;19921;-63
2023/01/30 08:55:58;;;;;;;;;;;18.90;43.40;;;;;;5030577;28;19920;-67
2023/01/30 08:58:25;;;;;;;;;;;18.90;43.40;;;;;;5029974;28;19928;-61
2023/01/30 09:00:52;;;;;;;;;;;18.90;43.40;;;;;;5031517;28;19920;-60
2023/01/30 09:03:19;;;;;;;;;;;18.90;43.40;;;;;;5038818;28;19990;-60
2023/01/30 09:05:47;;;;;;;;;;;18.90;44.00;;;;;;5032028;28;19957;-61
2023/01/30 09:08:13;;;;;;;;;;;18.90;43.40;;;;;;5030302;28;19928;-67
2023/01/30 09:10:40;;;;;;;;;;;18.90;43.40;;;;;;5011975;28;19971;-61
2023/01/30 09:13:08;;;;;;;;;;;18.90;43.40;;;;;;5030257;28;19971;-61
2023/01/30 09:15:35;;;;;;;;;;;18.90;43.40;;;;;;5029946;28;19928;-60
2023/01/30 09:18:03;;;;;;;;;;;18.90;43.40;;;;;;5012050;28;20341;-63
2023/01/30 09:20:30;;;;;;;;;;;18.90;43.40;;;;;;5039267;28;19921;-62
2023/01/30 09:22:59;;;;;;;;;;;18.90;43.40;;;;;;5018153;28;20221;-63
2023/01/30 09:25:25;;;;;;;;;;;18.90;43.40;;;;;;5031765;28;19991;-59
2023/01/30 09:27:52;;;;;;;;;;;18.90;43.40;;;;;;5035929;28;19951;-66
2023/01/30 09:30:19;;;;;;;;;;;18.90;43.40;;;;;;5032761;28;19932;-65
2023/01/30 09:32:46;;;;;;;;;;;18.90;43.40;;;;;;5016466;28;19971;-62
2023/01/30 09:35:12;;;;;;;;;;;18.90;43.40;;;;;;5011401;28;20018;-66
2023/01/30 09:37:39;;;;;;;;;;;18.90;43.40;;;;;;5047998;28;19924;-62
2023/01/30 09:40:09;;;;;;;;;;;18.90;43.40;;;;;;5055941;28;19983;-61
2023/01/30 09:42:43;;;;;;;;;;;18.90;43.50;;;;;;5021408;28;19921;-58
2023/01/30 09:45:14;;;;;;;;;;;18.90;43.40;;;;;;5029635;28;19975;-59
2023/01/30 09:47:42;;;;;;;;;;;18.90;43.50;;;;;;5028997;28;20250;-63
2023/01/30 09:50:16;;;;;;;;;;;18.90;43.40;;;;;;5030136;28;19928;-68
2023/01/30 09:52:45;;;;;;;;;;;18.90;43.40;;;;;;5041073;28;20287;-63
2023/01/30 09:55:17;;;;;;;;;;;18.90;43.40;;;;;;5013561;28;19940;-63
2023/01/30 09:57:44;;;;;;;;;;;18.90;43.40;;;;;;5012066;28;19921;-60
2023/01/30 10:00:11;;;;;;;;;;;18.90;43.40;;;;;;5012069;28;19921;-59
2023/01/30 10:02:45;;;;;;;;;;;18.90;43.40;;;;;;5014721;28;19932;-62
2023/01/30 10:05:11;;;;;;;;;;;18.90;43.40;;;;;;5014278;28;19925;-67
2023/01/30 10:07:42;;;;;;;;;;;18.90;43.40;;;;;;5010293;28;19925;-61
2023/01/30 10:10:10;;;;;;;;;;;18.90;43.40;;;;;;5036281;28;19939;-61
2023/01/30 10:12:42;;;;;;;;;;;18.90;43.50;;;;;;5023969;28;19974;-66
2023/01/30 10:15:15;;;;;;;;;;;18.90;43.50;;;;;;5044894;28;19998;-61
2023/01/30 10:17:46;;;;;;;;;;;18.90;43.50;;;;;;5029720;28;19928;-61
2023/01/30 10:20:16;;;;;;;;;;;19.00;43.60;;;;;;5033966;28;19943;-63
2023/01/30 10:22:46;;;;;;;;;;;18.90;43.50;;;;;;5024366;28;20414;-60
2023/01/30 10:25:17;;;;;;;;;;;19.00;43.60;;;;;;5020873;28;19970;-66
2023/01/30 10:27:47;;;;;;;;;;;19.00;43.60;;;;;;5022906;28;19933;-63
2023/01/30 10:30:14;;;;;;;;;;;19.00;43.70;;;;;;5027851;28;19925;-60
2023/01/30 10:32:42;;;;;;;;;;;19.00;43.70;;;;;;5054814;28;19975;-65
2023/01/30 10:35:10;;;;;;;;;;;19.00;43.70;;;;;;5050398;28;20362;-66
2023/01/30 10:37:39;;;;;;;;;;;19.00;43.80;;;;;;5022454;28;19932;-61
2023/01/30 10:40:07;;;;;;;;;;;19.00;43.80;;;;;;5060422;28;19928;-69
2023/01/30 10:42:35;;;;;;;;;;;19.00;43.80;;;;;;5046074;28;19943;-69
2023/01/30 10:45:06;;;;;;;;;;;19.00;43.80;;;;;;5021426;28;19933;-64
2023/01/30 10:47:37;;;;;;;;;;;19.00;43.80;;;;;;5041109;28;19931;-65
2023/01/30 10:50:09;;;;;;;;;;;19.00;43.80;;;;;;5030332;28;20018;-65
2023/01/30 10:52:37;;;;;;;;;;;19.10;43.90;;;;;;5046979;28;19921;-61
2023/01/30 10:55:06;;;;;;;;;;;19.10;43.90;;;;;;5026068;28;19925;-68
2023/01/30 10:57:38;;;;;;;;;;;19.10;43.90;;;;;;5030039;28;19932;-64
2023/01/30 11:00:11;;;;;;;;;;;19.10;43.90;;;;;;5024038;28;19948;-60
2023/01/30 11:02:39;;;;;;;;;;;19.10;43.90;;;;;;5040123;28;19970;-61
2023/01/30 11:05:09;;;;;;;;;;;19.10;43.90;;;;;;5040062;28;19943;-60
2023/01/30 11:07:36;;;;;;;;;;;19.10;44.00;;;;;;5026596;28;20005;-62
2023/01/30 11:10:06;;;;;;;;;;;19.10;44.00;;;;;;5020422;28;20011;-61
2023/01/30 11:12:32;;;;;;;;;;;19.10;44.00;;;;;;5052951;28;19924;-62
2023/01/30 11:14:59;;;;;;;;;;;19.20;44.10;;;;;;5012855;28;19925;-65
2023/01/30 11:17:32;;;;;;;;;;;19.10;44.00;;;;;;5029909;28;19925;-68
2023/01/30 11:20:01;;;;;;;;;;;19.20;44.10;;;;;;5027678;28;20366;-61
2023/01/30 11:22:28;;;;;;;;;;;19.10;44.10;;;;;;5020697;28;19971;-63
2023/01/30 11:25:05;;;;;;;;;;;19.20;44.20;;;;;;5042410;28;19959;-59
2023/01/30 11:27:32;;;;;;;;;;;19.20;44.10;;;;;;5054839;28;19957;-63
2023/01/30 11:30:03;;;;;;;;;;;19.20;44.10;;;;;;5038437;28;19960;-59
2023/01/30 11:32:31;;;;;;;;;;;19.20;44.10;;;;;;5041779;28;19966;-70
2023/01/30 11:35:02;;;;;;;;;;;19.20;44.10;;;;;;5018585;28;19986;-61
2023/01/30 11:37:30;;;;;;;;;;;19.20;44.10;;;;;;5023400;28;20317;-64
2023/01/30 11:39:57;;;;;;;;;;;19.20;44.10;;;;;;5042971;28;19921;-60
2023/01/30 11:42:24;;;;;;;;;;;19.20;44.20;;;;;;5031505;28;20007;-68
2023/01/30 11:44:54;;;;;;;;;;;19.20;44.10;;;;;;5019875;28;20301;-63
2023/01/30 11:47:22;;;;;;;;;;;19.20;44.10;;;;;;5023871;28;19921;-61
2023/01/30 11:49:53;;;;;;;;;;;19.20;44.10;;;;;;5023273;28;19921;-64
2023/01/30 11:52:21;;;;;;;;;;;19.20;44.10;;;;;;5023990;28;20190;-65
2023/01/30 11:54:48;;;;;;;;;;;19.20;44.10;;;;;;5035417;28;19921;-65
2023/01/30 11:57:15;;;;;;;;;;;19.20;44.00;;;;;;5032233;28;19963;-62
2023/01/30 11:59:43;;;;;;;;;;;19.20;44.00;;;;;;5026021;28;19932;-62
2023/01/30 12:02:12;;;;;;;;;;;19.20;44.00;;;;;;5030070;28;19920;-64
2023/01/30 12:04:39;;;;;;;;;;;19.20;44.00;;;;;;5041125;28;19990;-62
2023/01/30 12:07:08;;;;;;;;;;;19.20;44.00;;;;;;5049325;28;20474;-61
2023/01/30 12:09:36;;;;;;;;;;;19.20;43.90;;;;;;5034790;28;19922;-60
2023/01/30 12:12:02;;;;;;;;;;;19.20;44.00;;;;;;5024878;28;19921;-66
2023/01/30 12:14:32;;;;;;;;;;;19.20;44.00;;;;;;5048697;28;20043;-60
2023/01/30 12:17:02;;;;;;;;;;;19.20;44.00;;;;;;5030844;28;19929;-63
2023/01/30 12:19:32;;;;;;;;;;;19.20;44.00;;;;;;5023903;28;19924;-68
2023/01/30 12:22:00;;;;;;;;;;;19.20;44.00;;;;;;5024476;28;19982;-65
2023/01/30 12:24:29;;;;;;;;;;;19.20;44.00;;;;;;5030823;28;20342;-59
2023/01/30 12:26:57;;;;;;;;;;;19.20;44.00;;;;;;5040468;28;19928;-59
2023/01/30 12:29:25;;;;;;;;;;;19.20;44.00;;;;;;5060043;28;19921;-59
2023/01/30 12:31:54;;;;;;;;;;;19.20;44.10;;;;;;5021646;28;20357;-64
2023/01/30 12:34:21;;;;;;;;;;;19.20;44.10;;;;;;5028453;28;19955;-60
2023/01/30 12:36:50;;;;;;;;;;;19.20;44.10;;;;;;5035253;28;19982;-60
2023/01/30 12:39:23;;;;;;;;;;;19.30;44.10;;;;;;5033804;28;19947;-59
2023/01/30 12:41:58;;;;;;;;;;;19.30;44.10;;;;;;5033376;28;19943;-59
2023/01/30 12:44:40;;;;;;;;;;;19.30;44.70;;;;;;5025941;28;19999;-60
2023/01/30 12:47:22;;;;;;;;;;;19.30;44.20;;;;;;5029637;28;20215;-59
2023/01/30 12:49:54;;;;;;;;;;;19.30;44.10;;;;;;5036490;28;19921;-62
2023/01/30 12:52:27;;;;;;;;;;;19.30;44.10;;;;;;5025554;28;19983;-59
2023/01/30 12:54:55;;;;;;;;;;;19.30;44.10;;;;;;5045063;28;19920;-59
2023/01/30 12:57:24;;;;;;;;;;;19.30;44.20;;;;;;5040376;28;19995;-59
2023/01/30 12:59:53;;;;;;;;;;;19.30;44.80;;;;;;5022991;28;19929;-60
2023/01/30 13:02:35;;;;;;;;;;;19.30;44.20;;;;;;5048653;28;19924;-62
2023/01/30 13:05:06;;;;;;;;;;;19.30;44.20;;;;;;5022362;28;19948;-60
2023/01/30 13:07:35;;;;;;;;;;;19.30;44.20;;;;;;5030998;28;19921;-63
2023/01/30 13:10:04;;;;;;;;;;;19.30;44.20;;;;;;5049008;28;19920;-68
2023/01/30 13:12:34;;;;;;;;;;;19.40;44.30;;;;;;5013095;28;19995;-61
2023/01/30 13:15:02;;;;;;;;;;;19.40;44.30;;;;;;5019712;28;19978;-61
2023/01/30 13:17:35;;;;;;;;;;;19.40;44.30;;;;;;5030872;28;19921;-63
2023/01/30 13:20:04;;;;;;;;;;;19.40;44.30;;;;;;5047018;28;19920;-63
2023/01/30 13:22:30;;;;;;;;;;;19.40;44.30;;;;;;5020790;28;19971;-66
2023/01/30 13:24:59;;;;;;;;;;;19.40;44.30;;;;;;5019774;28;19979;-61
2023/01/30 13:27:26;;;;;;;;;;;19.40;44.30;;;;;;5019925;28;19921;-69
2023/01/30 13:29:55;;;;;;;;;;;19.40;44.30;;;;;;5043215;28;20448;-62
2023/01/30 13:32:26;;;;;;;;;;;19.50;44.40;;;;;;5048300;28;19925;-62
2023/01/30 13:34:55;;;;;;;;;;;19.40;44.30;;;;;;5039596;28;19921;-64
2023/01/30 13:37:22;;;;;;;;;;;19.50;44.40;;;;;;5042783;28;20209;-61
2023/01/30 13:39:50;;;;;;;;;;;19.40;44.30;;;;;;5023260;28;19928;-62
2023/01/30 13:42:27;;;;;;;;;;;19.40;44.30;;;;;;5020802;28;19921;-60
2023/01/30 13:44:56;;;;;;;;;;;19.40;44.30;;;;;;5044730;28;19925;-59
2023/01/30 13:47:26;;;;;;;;;;;19.40;44.10;;;;;;5048789;28;20282;-58
2023/01/30 13:49:56;;;;;;;;;;;19.40;43.80;;;;;;5032187;28;19956;-58
2023/01/30 13:52:24;;;;;;;;;;;19.40;43.50;;;;;;5009489;28;20358;-59
2023/01/30 13:54:53;;;;;;;;;;;19.40;43.20;;;;;;5044937;28;19967;-59
2023/01/30 13:57:22;;;;;;;;;;;19.40;43.00;;;;;;5031152;28;19929;-60
2023/01/30 13:59:55;;;;;;;;;;;19.30;42.70;;;;;;5042100;28;19940;-59
2023/01/30 14:02:24;;;;;;;;;;;19.30;42.60;;;;;;5019385;28;19940;-58
2023/01/30 14:04:51;;;;;;;;;;;19.30;42.20;;;;;;5028289;28;19970;-58
2023/01/30 14:07:22;;;;;;;;;;;19.20;42.00;;;;;;5044626;28;19978;-69
2023/01/30 14:09:49;;;;;;;;;;;19.20;41.90;;;;;;5036763;28;19920;-68
2023/01/30 14:12:17;;;;;;;;;;;19.20;42.10;;;;;;5045376;28;19933;-59
2023/01/30 14:14:44;;;;;;;;;;;19.20;42.30;;;;;;5026977;28;20020;-59
2023/01/30 14:17:12;;;;;;;;;;;19.20;42.50;;;;;;5047460;28;19921;-59
2023/01/30 14:19:55;;;;;;;;;;;19.10;42.60;;;;;;5022311;28;19964;-60
2023/01/30 14:22:26;;;;;;;;;;;19.20;42.80;;;;;;5041992;28;20395;-64
2023/01/30 14:25:11;;;;;;;;;;;19.20;42.90;;;;;;5034047;28;19932;-60
2023/01/30 14:27:38;;;;;;;;;;;19.20;43.00;;;;;;5024342;28;19921;-66
2023/01/30 14:30:14;;;;;;;;;;;19.20;43.10;;;;;;5026684;28;19920;-62